sensor_id;sensor_type;location;lat;lon;timestamp;pressure;altitude;pressure_sealevel;temperature;humidity
48652;BME280;34442;52.362;-1.302;2023-02-01T00:01:43;100898.16;;;4.86;100.00
48652;BME280;34442;52.362;-1.302;2023-02-01T00:04:08;100899.53;;;4.90;100.00
48652;BME280;34442;52.362;-1.302;2023-02-01T00:06:34;100899.34;;;4.92;100.00
48652;BME280;34442;52.362;-1.302;2023-02-01T00:09:00;100909.78;;;4.85;100.00
48652;BME280;34442;52.362;-1.302;2023-02-01T00:11:28;100902.50;;;4.87;100.00
48652;BME280;34442;52.362;-1.302;2023-02-01T00:13:54;100912.63;;;4.84;100.00
48652;BME280;34442;52.362;-1.302;2023-02-01T00:16:26;100906.94;;;4.79;100.00
48652;BME280;34442;52.362;-1.302;2023-02-01T00:18:57;100912.56;;;4.76;100.00
48652;BME280;34442;52.362;-1.302;2023-02-01T00:21:23;100909.38;;;4.72;100.00
48652;BME280;34442;52.362;-1.302;2023-02-01T00:23:48;100918.34;;;4.71;100.00
48652;BME280;34442;52.362;-1.302;2023-02-01T00:26:16;100904.34;;;4.69;100.00
48652;BME280;34442;52.362;-1.302;2023-02-01T00:28:43;100909.19;;;4.65;100.00
48652;BME280;34442;52.362;-1.302;2023-02-01T00:31:08;100909.19;;;4.65;100.00
48652;BME280;34442;52.362;-1.302;2023-02-01T00:33:34;100910.97;;;4.65;100.00
48652;BME280;34442;52.362;-1.302;2023-02-01T00:36:05;100908.31;;;4.65;100.00
48652;BME280;34442;52.362;-1.302;2023-02-01T00:38:31;100905.97;;;4.62;100.00
48652;BME280;34442;52.362;-1.302;2023-02-01T00:43:33;100898.97;;;4.61;100.00
48652;BME280;34442;52.362;-1.302;2023-02-01T00:45:59;100901.13;;;4.57;100.00
48652;BME280;34442;52.362;-1.302;2023-02-01T00:48:25;100904.28;;;4.61;100.00
48652;BME280;34442;52.362;-1.302;2023-02-01T00:50:51;100907.66;;;4.63;100.00
48652;BME280;34442;52.362;-1.302;2023-02-01T00:53:17;100900.97;;;4.59;100.00
48652;BME280;34442;52.362;-1.302;2023-02-01T00:55:47;100897.81;;;4.63;100.00
48652;BME280;34442;52.362;-1.302;2023-02-01T00:58:14;100903.00;;;4.65;100.00
48652;BME280;34442;52.362;-1.302;2023-02-01T01:00:39;100897.81;;;4.63;100.00
48652;BME280;34442;52.362;-1.302;2023-02-01T01:03:05;100911.66;;;4.67;100.00
48652;BME280;34442;52.362;-1.302;2023-02-01T01:05:49;100914.81;;;4.62;100.00
48652;BME280;34442;52.362;-1.302;2023-02-01T01:08:15;100915.94;;;4.60;100.00
48652;BME280;34442;52.362;-1.302;2023-02-01T01:10:42;100916.41;;;4.55;100.00
48652;BME280;34442;52.362;-1.302;2023-02-01T01:13:08;100910.53;;;4.52;100.00
48652;BME280;34442;52.362;-1.302;2023-02-01T01:15:38;100908.88;;;4.51;100.00
48652;BME280;34442;52.362;-1.302;2023-02-01T01:18:05;100907.69;;;4.45;100.00
48652;BME280;34442;52.362;-1.302;2023-02-01T01:20:31;100915.34;;;4.48;100.00
48652;BME280;34442;52.362;-1.302;2023-02-01T01:22:59;100905.84;;;4.45;100.00
48652;BME280;34442;52.362;-1.302;2023-02-01T01:25:27;100901.38;;;4.46;100.00
48652;BME280;34442;52.362;-1.302;2023-02-01T01:27:53;100894.38;;;4.71;100.00
48652;BME280;34442;52.362;-1.302;2023-02-01T01:30:18;100901.91;;;4.76;100.00
48652;BME280;34442;52.362;-1.302;2023-02-01T01:32:44;100896.13;;;4.80;100.00
48652;BME280;34442;52.362;-1.302;2023-02-01T01:35:10;100908.66;;;4.88;100.00
48652;BME280;34442;52.362;-1.302;2023-02-01T01:37:36;100898.00;;;4.88;100.00
48652;BME280;34442;52.362;-1.302;2023-02-01T01:40:03;100893.38;;;4.90;100.00
48652;BME280;34442;52.362;-1.302;2023-02-01T01:42:28;100906.53;;;4.91;100.00
48652;BME280;34442;52.362;-1.302;2023-02-01T01:45:00;100890.06;;;4.96;100.00
48652;BME280;34442;52.362;-1.302;2023-02-01T01:47:30;100888.59;;;5.02;100.00
48652;BME280;34442;52.362;-1.302;2023-02-01T01:49:59;100886.78;;;5.02;100.00
48652;BME280;34442;52.362;-1.302;2023-02-01T01:52:25;100884.59;;;5.06;100.00
48652;BME280;34442;52.362;-1.302;2023-02-01T01:54:55;100880.81;;;5.08;100.00
48652;BME280;34442;52.362;-1.302;2023-02-01T01:59:59;100886.97;;;5.09;100.00
48652;BME280;34442;52.362;-1.302;2023-02-01T02:02:26;100888.97;;;5.07;100.00
48652;BME280;34442;52.362;-1.302;2023-02-01T02:04:52;100898.63;;;5.08;100.00
48652;BME280;34442;52.362;-1.302;2023-02-01T02:07:21;100888.28;;;5.05;100.00
48652;BME280;34442;52.362;-1.302;2023-02-01T02:09:48;100892.47;;;5.07;100.00
48652;BME280;34442;52.362;-1.302;2023-02-01T02:12:14;100887.78;;;5.09;100.00
48652;BME280;34442;52.362;-1.302;2023-02-01T02:14:39;100882.16;;;5.12;100.00
48652;BME280;34442;52.362;-1.302;2023-02-01T02:17:36;100885.31;;;5.08;100.00
48652;BME280;34442;52.362;-1.302;2023-02-01T02:20:20;100890.47;;;5.09;100.00
48652;BME280;34442;52.362;-1.302;2023-02-01T02:37:01;100874.94;;;5.05;100.00
48652;BME280;34442;52.362;-1.302;2023-02-01T02:39:33;100869.34;;;5.16;100.00
48652;BME280;34442;52.362;-1.302;2023-02-01T02:45:28;100857.16;;;5.13;100.00
48652;BME280;34442;52.362;-1.302;2023-02-01T02:48:39;100851.00;;;5.13;100.00
48652;BME280;34442;52.362;-1.302;2023-02-01T02:51:23;100843.00;;;5.13;100.00
48652;BME280;34442;52.362;-1.302;2023-02-01T02:54:14;100847.31;;;5.06;100.00
48652;BME280;34442;52.362;-1.302;2023-02-01T02:57:01;100847.00;;;5.09;100.00
48652;BME280;34442;52.362;-1.302;2023-02-01T02:59:48;100844.03;;;5.12;100.00
48652;BME280;34442;52.362;-1.302;2023-02-01T03:02:33;100839.53;;;5.12;100.00
48652;BME280;34442;52.362;-1.302;2023-02-01T03:05:18;100832.34;;;5.13;100.00
48652;BME280;34442;52.362;-1.302;2023-02-01T03:13:13;100848.50;;;5.11;100.00
48652;BME280;34442;52.362;-1.302;2023-02-01T03:15:48;100856.03;;;5.16;100.00
48652;BME280;34442;52.362;-1.302;2023-02-01T03:18:25;100856.34;;;5.13;100.00
48652;BME280;34442;52.362;-1.302;2023-02-01T03:20:53;100864.19;;;5.14;100.00
48652;BME280;34442;52.362;-1.302;2023-02-01T03:23:23;100866.84;;;5.14;100.00
48652;BME280;34442;52.362;-1.302;2023-02-01T03:25:52;100866.53;;;5.17;100.00
48652;BME280;34442;52.362;-1.302;2023-02-01T03:28:20;100869.69;;;5.21;100.00
48652;BME280;34442;52.362;-1.302;2023-02-01T03:30:48;100867.38;;;5.26;100.00
48652;BME280;34442;52.362;-1.302;2023-02-01T03:33:18;100862.00;;;5.52;100.00
48652;BME280;34442;52.362;-1.302;2023-02-01T03:36:24;100857.88;;;5.66;100.00
48652;BME280;34442;52.362;-1.302;2023-02-01T03:41:40;100857.88;;;5.74;100.00
48652;BME280;34442;52.362;-1.302;2023-02-01T03:44:13;100846.72;;;5.79;100.00
48652;BME280;34442;52.362;-1.302;2023-02-01T03:46:53;100846.91;;;5.77;100.00
48652;BME280;34442;52.362;-1.302;2023-02-01T03:49:28;100860.56;;;5.82;100.00
48652;BME280;34442;52.362;-1.302;2023-02-01T03:51:57;100851.91;;;5.80;100.00
48652;BME280;34442;52.362;-1.302;2023-02-01T03:54:24;100861.91;;;5.78;100.00
48652;BME280;34442;52.362;-1.302;2023-02-01T03:56:52;100861.06;;;5.78;100.00
48652;BME280;34442;52.362;-1.302;2023-02-01T03:59:19;100864.41;;;5.80;100.00
48652;BME280;34442;52.362;-1.302;2023-02-01T04:01:44;100866.22;;;5.79;100.00
48652;BME280;34442;52.362;-1.302;2023-02-01T04:04:10;100852.22;;;5.77;100.00
48652;BME280;34442;52.362;-1.302;2023-02-01T04:06:35;100851.22;;;5.78;100.00
48652;BME280;34442;52.362;-1.302;2023-02-01T04:09:01;100853.72;;;5.80;100.00
48652;BME280;34442;52.362;-1.302;2023-02-01T04:11:30;100861.59;;;5.81;100.00
48652;BME280;34442;52.362;-1.302;2023-02-01T04:13:56;100849.91;;;5.82;100.00
48652;BME280;34442;52.362;-1.302;2023-02-01T04:16:21;100851.06;;;5.80;100.00
48652;BME280;34442;52.362;-1.302;2023-02-01T04:18:47;100849.25;;;5.80;100.00
48652;BME280;34442;52.362;-1.302;2023-02-01T04:21:12;100841.06;;;5.82;100.00
48652;BME280;34442;52.362;-1.302;2023-02-01T04:23:38;100849.56;;;5.77;100.00
48652;BME280;34442;52.362;-1.302;2023-02-01T04:26:04;100845.91;;;5.78;100.00
48652;BME280;34442;52.362;-1.302;2023-02-01T04:28:29;100845.91;;;5.78;100.00
48652;BME280;34442;52.362;-1.302;2023-02-01T04:30:55;100845.91;;;5.78;100.00
48652;BME280;34442;52.362;-1.302;2023-02-01T04:33:21;100850.91;;;5.81;100.00
48652;BME280;34442;52.362;-1.302;2023-02-01T04:35:47;100852.88;;;5.79;100.00
48652;BME280;34442;52.362;-1.302;2023-02-01T04:38:13;100848.06;;;5.75;100.00
48652;BME280;34442;52.362;-1.302;2023-02-01T04:40:38;100846.72;;;5.70;100.00
48652;BME280;34442;52.362;-1.302;2023-02-01T04:43:04;100849.22;;;5.72;100.00
48652;BME280;34442;52.362;-1.302;2023-02-01T04:45:30;100852.03;;;5.70;100.00
48652;BME280;34442;52.362;-1.302;2023-02-01T04:47:55;100849.56;;;5.69;100.00
48652;BME280;34442;52.362;-1.302;2023-02-01T04:50:21;100861.88;;;5.70;100.00
48652;BME280;34442;52.362;-1.302;2023-02-01T04:52:46;100856.88;;;5.75;100.00
48652;BME280;34442;52.362;-1.302;2023-02-01T04:55:12;100863.06;;;5.76;100.00
48652;BME280;34442;52.362;-1.302;2023-02-01T04:57:41;100852.56;;;5.74;100.00
48652;BME280;34442;52.362;-1.302;2023-02-01T05:00:08;100859.72;;;5.73;100.00
48652;BME280;34442;52.362;-1.302;2023-02-01T05:02:34;100846.56;;;5.72;100.00
48652;BME280;34442;52.362;-1.302;2023-02-01T05:05:01;100852.03;;;5.70;100.00
48652;BME280;34442;52.362;-1.302;2023-02-01T05:07:26;100848.72;;;5.68;100.00
48652;BME280;34442;52.362;-1.302;2023-02-01T05:09:52;100848.72;;;5.68;100.00
48652;BME280;34442;52.362;-1.302;2023-02-01T05:12:17;100858.22;;;5.71;100.00
48652;BME280;34442;52.362;-1.302;2023-02-01T05:15:01;100856.03;;;5.66;100.00
48652;BME280;34442;52.362;-1.302;2023-02-01T05:17:27;100860.91;;;5.29;100.00
48652;BME280;34442;52.362;-1.302;2023-02-01T05:19:52;100856.72;;;5.26;100.00
48652;BME280;34442;52.362;-1.302;2023-02-01T05:22:18;100844.41;;;5.25;100.00
48652;BME280;34442;52.362;-1.302;2023-02-01T05:24:44;100833.41;;;5.20;100.00
48652;BME280;34442;52.362;-1.302;2023-02-01T05:27:09;100846.22;;;5.25;100.00
48652;BME280;34442;52.362;-1.302;2023-02-01T05:29:35;100847.59;;;5.29;100.00
48652;BME280;34442;52.362;-1.302;2023-02-01T05:32:00;100837.59;;;5.31;100.00
48652;BME280;34442;52.362;-1.302;2023-02-01T05:34:26;100841.94;;;5.32;100.00
48652;BME280;34442;52.362;-1.302;2023-02-01T05:36:51;100834.97;;;5.47;100.00
48652;BME280;34442;52.362;-1.302;2023-02-01T05:39:17;100834.38;;;5.69;100.00
48652;BME280;34442;52.362;-1.302;2023-02-01T05:41:42;100840.22;;;5.73;100.00
48652;BME280;34442;52.362;-1.302;2023-02-01T05:44:08;100832.22;;;5.73;100.00
48652;BME280;34442;52.362;-1.302;2023-02-01T05:46:37;100841.22;;;5.72;100.00
48652;BME280;34442;52.362;-1.302;2023-02-01T05:49:03;100841.06;;;5.73;100.00
48652;BME280;34442;52.362;-1.302;2023-02-01T05:51:29;100835.22;;;5.70;100.00
48652;BME280;34442;52.362;-1.302;2023-02-01T05:53:54;100848.22;;;5.73;100.00
48652;BME280;34442;52.362;-1.302;2023-02-01T05:56:20;100843.38;;;5.68;100.00
48652;BME280;34442;52.362;-1.302;2023-02-01T05:58:46;100846.22;;;5.75;100.00
48652;BME280;34442;52.362;-1.302;2023-02-01T06:01:11;100848.38;;;5.80;100.00
48652;BME280;34442;52.362;-1.302;2023-02-01T06:03:37;100853.91;;;5.78;100.00
48652;BME280;34442;52.362;-1.302;2023-02-01T06:06:03;100855.56;;;5.79;100.00
48652;BME280;34442;52.362;-1.302;2023-02-01T06:08:29;100857.88;;;5.74;100.00
48652;BME280;34442;52.362;-1.302;2023-02-01T06:11:03;100853.91;;;5.78;100.00
48652;BME280;34442;52.362;-1.302;2023-02-01T06:13:30;100855.56;;;5.79;100.00
48652;BME280;34442;52.362;-1.302;2023-02-01T06:15:55;100852.41;;;5.84;100.00
48652;BME280;34442;52.362;-1.302;2023-02-01T06:18:23;100856.38;;;5.80;100.00
48652;BME280;34442;52.362;-1.302;2023-02-01T06:20:53;100855.41;;;5.81;100.00
48652;BME280;34442;52.362;-1.302;2023-02-01T06:23:19;100859.22;;;5.78;100.00
48652;BME280;34442;52.362;-1.302;2023-02-01T06:25:44;100859.22;;;5.78;100.00
48652;BME280;34442;52.362;-1.302;2023-02-01T06:28:10;100860.91;;;5.79;100.00
48652;BME280;34442;52.362;-1.302;2023-02-01T06:30:35;100860.91;;;5.79;100.00
48652;BME280;34442;52.362;-1.302;2023-02-01T06:33:01;100862.72;;;5.79;100.00
48652;BME280;34442;52.362;-1.302;2023-02-01T06:35:26;100871.25;;;5.82;100.00
48652;BME280;34442;52.362;-1.302;2023-02-01T06:37:52;100875.94;;;5.80;100.00
48652;BME280;34442;52.362;-1.302;2023-02-01T06:40:17;100873.25;;;5.80;100.00
48652;BME280;34442;52.362;-1.302;2023-02-01T06:42:43;100868.75;;;5.81;100.00
48652;BME280;34442;52.362;-1.302;2023-02-01T06:45:09;100867.22;;;5.78;100.00
48652;BME280;34442;52.362;-1.302;2023-02-01T06:47:34;100860.88;;;5.71;100.00
48652;BME280;34442;52.362;-1.302;2023-02-01T06:50:00;100866.72;;;5.75;100.00
48652;BME280;34442;52.362;-1.302;2023-02-01T06:52:25;100864.75;;;5.77;100.00
48652;BME280;34442;52.362;-1.302;2023-02-01T06:54:51;100861.06;;;5.69;100.00
48652;BME280;34442;52.362;-1.302;2023-02-01T06:57:16;100862.56;;;5.72;100.00
48652;BME280;34442;52.362;-1.302;2023-02-01T06:59:41;100865.25;;;5.72;100.00
48652;BME280;34442;52.362;-1.302;2023-02-01T07:02:10;100869.06;;;5.69;100.00
48652;BME280;34442;52.362;-1.302;2023-02-01T07:04:36;100865.34;;;5.62;100.00
48652;BME280;34442;52.362;-1.302;2023-02-01T07:07:02;100863.38;;;5.64;100.00
48652;BME280;34442;52.362;-1.302;2023-02-01T07:09:27;100869.53;;;5.65;100.00
48652;BME280;34442;52.362;-1.302;2023-02-01T07:11:53;100868.19;;;5.61;100.00
48652;BME280;34442;52.362;-1.302;2023-02-01T07:14:21;100859.38;;;5.60;100.00
48652;BME280;34442;52.362;-1.302;2023-02-01T07:16:47;100872.34;;;5.63;100.00
48652;BME280;34442;52.362;-1.302;2023-02-01T07:19:12;100867.19;;;5.62;100.00
48652;BME280;34442;52.362;-1.302;2023-02-01T07:21:38;100868.84;;;5.63;100.00
48652;BME280;34442;52.362;-1.302;2023-02-01T07:24:04;100867.22;;;5.70;100.00
48652;BME280;34442;52.362;-1.302;2023-02-01T07:26:29;100866.22;;;5.79;100.00
48652;BME280;34442;52.362;-1.302;2023-02-01T07:28:55;100869.25;;;5.76;100.00
48652;BME280;34442;52.362;-1.302;2023-02-01T07:31:20;100865.25;;;5.80;100.00
48652;BME280;34442;52.362;-1.302;2023-02-01T07:33:48;100860.41;;;5.84;100.00
48652;BME280;34442;52.362;-1.302;2023-02-01T07:36:17;100861.91;;;5.86;100.00
48652;BME280;34442;52.362;-1.302;2023-02-01T07:38:42;100848.91;;;5.83;100.00
48652;BME280;34442;52.362;-1.302;2023-02-01T07:41:08;100847.44;;;5.89;100.00
48652;BME280;34442;52.362;-1.302;2023-02-01T07:43:34;100858.97;;;5.97;100.00
48652;BME280;34442;52.362;-1.302;2023-02-01T07:46:01;100855.94;;;5.92;100.00
48652;BME280;34442;52.362;-1.302;2023-02-01T07:48:28;100858.63;;;6.01;100.00
48652;BME280;34442;52.362;-1.302;2023-02-01T07:51:13;100859.63;;;6.00;100.00
48652;BME280;34442;52.362;-1.302;2023-02-01T07:53:39;100860.63;;;5.99;100.00
48652;BME280;34442;52.362;-1.302;2023-02-01T07:56:11;100872.13;;;5.99;100.00
48652;BME280;34442;52.362;-1.302;2023-02-01T07:58:41;100871.47;;;5.97;100.00
48652;BME280;34442;52.362;-1.302;2023-02-01T08:01:14;100857.13;;;5.98;100.00
48652;BME280;34442;52.362;-1.302;2023-02-01T08:03:50;100869.47;;;5.99;100.00
48652;BME280;34442;52.362;-1.302;2023-02-01T08:06:17;100875.31;;;6.03;100.00
48652;BME280;34442;52.362;-1.302;2023-02-01T08:08:45;100864.66;;;6.03;100.00
48652;BME280;34442;52.362;-1.302;2023-02-01T08:11:12;100872.81;;;6.01;100.00
48652;BME280;34442;52.362;-1.302;2023-02-01T08:13:39;100871.97;;;6.01;100.00
48652;BME280;34442;52.362;-1.302;2023-02-01T08:16:07;100874.63;;;6.01;100.00
48652;BME280;34442;52.362;-1.302;2023-02-01T08:18:34;100872.16;;;6.07;100.00
48652;BME280;34442;52.362;-1.302;2023-02-01T08:21:04;100877.50;;;6.07;100.00
48652;BME280;34442;52.362;-1.302;2023-02-01T08:23:30;100862.31;;;6.08;100.00
48652;BME280;34442;52.362;-1.302;2023-02-01T08:26:25;100870.81;;;6.11;100.00
48652;BME280;34442;52.362;-1.302;2023-02-01T08:29:00;100875.50;;;6.09;100.00
48652;BME280;34442;52.362;-1.302;2023-02-01T08:31:28;100879.66;;;6.12;100.00
48652;BME280;34442;52.362;-1.302;2023-02-01T08:33:56;100874.31;;;6.12;100.00
48652;BME280;34442;52.362;-1.302;2023-02-01T08:36:24;100880.84;;;6.09;100.00
48652;BME280;34442;52.362;-1.302;2023-02-01T08:38:50;100881.16;;;6.06;100.00
48652;BME280;34442;52.362;-1.302;2023-02-01T08:41:18;100884.00;;;6.13;100.00
48652;BME280;34442;52.362;-1.302;2023-02-01T08:43:45;100884.50;;;6.16;100.00
48652;BME280;34442;52.362;-1.302;2023-02-01T08:46:11;100888.34;;;6.22;100.00
48652;BME280;34442;52.362;-1.302;2023-02-01T08:48:37;100885.69;;;6.30;100.00
48652;BME280;34442;52.362;-1.302;2023-02-01T08:51:05;100887.69;;;6.36;100.00
48652;BME280;34442;52.362;-1.302;2023-02-01T08:53:31;100887.53;;;6.46;100.00
48652;BME280;34442;52.362;-1.302;2023-02-01T08:55:57;100886.34;;;6.49;100.00
48652;BME280;34442;52.362;-1.302;2023-02-01T08:58:23;100890.34;;;6.53;100.00
48652;BME280;34442;52.362;-1.302;2023-02-01T09:00:48;100898.19;;;6.54;100.00
48652;BME280;34442;52.362;-1.302;2023-02-01T09:03:15;100899.53;;;6.66;100.00
48652;BME280;34442;52.362;-1.302;2023-02-01T09:05:40;100901.22;;;6.76;100.00
48652;BME280;34442;52.362;-1.302;2023-02-01T09:08:06;100905.19;;;6.88;100.00
48652;BME280;34442;52.362;-1.302;2023-02-01T09:10:32;100905.84;;;6.98;100.00
48652;BME280;34442;52.362;-1.302;2023-02-01T09:12:57;100903.00;;;7.00;100.00
48652;BME280;34442;52.362;-1.302;2023-02-01T09:15:23;100900.81;;;7.03;100.00
48652;BME280;34442;52.362;-1.302;2023-02-01T09:17:49;100905.34;;;6.94;100.00
48652;BME280;34442;52.362;-1.302;2023-02-01T09:20:14;100903.34;;;6.88;100.00
48652;BME280;34442;52.362;-1.302;2023-02-01T09:22:40;100902.34;;;6.89;100.00
48652;BME280;34442;52.362;-1.302;2023-02-01T09:25:06;100909.19;;;6.92;100.00
48652;BME280;34442;52.362;-1.302;2023-02-01T09:27:32;100908.69;;;6.96;100.00
48652;BME280;34442;52.362;-1.302;2023-02-01T09:29:57;100911.34;;;6.96;100.00
48652;BME280;34442;52.362;-1.302;2023-02-01T09:32:23;100911.50;;;7.03;100.00
48652;BME280;34442;52.362;-1.302;2023-02-01T09:34:50;100917.03;;;7.02;100.00
48652;BME280;34442;52.362;-1.302;2023-02-01T09:37:15;100917.34;;;7.07;100.00
48652;BME280;34442;52.362;-1.302;2023-02-01T09:39:41;100922.84;;;7.13;100.00
48652;BME280;34442;52.362;-1.302;2023-02-01T09:47:29;100916.13;;;7.26;100.00
48652;BME280;34442;52.362;-1.302;2023-02-01T09:50:14;100920.25;;;7.36;100.00
48652;BME280;34442;52.362;-1.302;2023-02-01T09:52:46;100924.97;;;7.34;100.00
48652;BME280;34442;52.362;-1.302;2023-02-01T09:55:24;100920.63;;;7.33;100.00
48652;BME280;34442;52.362;-1.302;2023-02-01T09:57:59;100922.16;;;7.19;100.00
48652;BME280;34442;52.362;-1.302;2023-02-01T10:00:29;100922.97;;;7.20;100.00
48652;BME280;34442;52.362;-1.302;2023-02-01T10:02:55;100922.00;;;7.21;100.00
48652;BME280;34442;52.362;-1.302;2023-02-01T10:27:33;100932.97;;;7.82;100.00
48652;BME280;34442;52.362;-1.302;2023-02-01T10:30:04;100932.78;;;7.83;100.00
48652;BME280;34442;52.362;-1.302;2023-02-01T10:32:35;100937.97;;;7.85;100.00
48652;BME280;34442;52.362;-1.302;2023-02-01T10:35:11;100942.94;;;7.96;100.00
48652;BME280;34442;52.362;-1.302;2023-02-01T10:37:41;100946.09;;;8.00;100.00
48652;BME280;34442;52.362;-1.302;2023-02-01T10:40:17;100949.69;;;8.15;100.00
48652;BME280;34442;52.362;-1.302;2023-02-01T10:51:26;100948.19;;;8.43;100.00
48652;BME280;34442;52.362;-1.302;2023-02-01T10:54:03;100949.66;;;8.46;100.00
48652;BME280;34442;52.362;-1.302;2023-02-01T10:56:30;100949.31;;;8.49;100.00
48652;BME280;34442;52.362;-1.302;2023-02-01T10:59:01;100948.44;;;8.57;100.00
48652;BME280;34442;52.362;-1.302;2023-02-01T11:01:34;100953.31;;;8.53;100.00
48652;BME280;34442;52.362;-1.302;2023-02-01T11:04:02;100971.28;;;8.44;100.00
48652;BME280;34442;52.362;-1.302;2023-02-01T11:06:39;100967.06;;;8.50;100.00
48652;BME280;34442;52.362;-1.302;2023-02-01T11:11:30;100971.41;;;8.51;100.00
48652;BME280;34442;52.362;-1.302;2023-02-01T11:14:13;100975.78;;;8.52;100.00
48652;BME280;34442;52.362;-1.302;2023-02-01T11:16:39;100983.44;;;8.55;100.00
48652;BME280;34442;52.362;-1.302;2023-02-01T11:19:06;100981.97;;;8.53;100.00
48652;BME280;34442;52.362;-1.302;2023-02-01T11:21:33;100979.91;;;8.55;100.00
48652;BME280;34442;52.362;-1.302;2023-02-01T11:24:04;100978.53;;;8.59;100.00
48652;BME280;34442;52.362;-1.302;2023-02-01T11:26:31;100983.81;;;8.52;100.00
48652;BME280;34442;52.362;-1.302;2023-02-01T11:28:59;100988.44;;;8.58;100.00
48652;BME280;34442;52.362;-1.302;2023-02-01T11:31:27;100990.47;;;8.56;100.00
48652;BME280;34442;52.362;-1.302;2023-02-01T11:46:18;100958.75;;;8.83;100.00
48652;BME280;34442;52.362;-1.302;2023-02-01T11:48:50;100955.38;;;8.89;100.00
48652;BME280;34442;52.362;-1.302;2023-02-01T11:51:37;100960.63;;;8.82;100.00
48652;BME280;34442;52.362;-1.302;2023-02-01T11:57:11;100950.66;;;8.91;100.00
48652;BME280;34442;52.362;-1.302;2023-02-01T13:39:39;100924.09;;;8.81;100.00
48652;BME280;34442;52.362;-1.302;2023-02-01T13:42:35;100930.78;;;8.85;100.00
48652;BME280;34442;52.362;-1.302;2023-02-01T13:45:21;100915.16;;;8.89;100.00
48652;BME280;34442;52.362;-1.302;2023-02-01T13:47:50;100914.59;;;8.93;100.00
48652;BME280;34442;52.362;-1.302;2023-02-01T13:50:25;100896.75;;;9.01;100.00
48652;BME280;34442;52.362;-1.302;2023-02-01T13:53:00;100900.16;;;8.94;100.00
48652;BME280;34442;52.362;-1.302;2023-02-01T13:55:32;100890.09;;;8.97;100.00
48652;BME280;34442;52.362;-1.302;2023-02-01T13:58:06;100893.63;;;8.97;100.00
48652;BME280;34442;52.362;-1.302;2023-02-01T14:00:38;100887.78;;;8.93;100.00
48652;BME280;34442;52.362;-1.302;2023-02-01T14:13:33;100896.88;;;9.22;100.00
48652;BME280;34442;52.362;-1.302;2023-02-01T14:21:33;100900.53;;;9.21;100.00
48652;BME280;34442;52.362;-1.302;2023-02-01T14:42:37;100913.25;;;9.27;100.00
48652;BME280;34442;52.362;-1.302;2023-02-01T14:55:39;100926.53;;;9.20;100.00
48652;BME280;34442;52.362;-1.302;2023-02-01T15:00:57;100940.44;;;9.24;100.00
48652;BME280;34442;52.362;-1.302;2023-02-01T15:09:14;100944.03;;;9.31;100.00
48652;BME280;34442;52.362;-1.302;2023-02-01T15:14:42;100943.56;;;9.28;100.00
48652;BME280;34442;52.362;-1.302;2023-02-01T15:17:26;100939.25;;;9.27;100.00
48652;BME280;34442;52.362;-1.302;2023-02-01T15:22:19;100943.31;;;9.23;100.00
48652;BME280;34442;52.362;-1.302;2023-02-01T15:24:55;100950.31;;;9.24;100.00
48652;BME280;34442;52.362;-1.302;2023-02-01T15:27:21;100955.69;;;9.24;100.00
48652;BME280;34442;52.362;-1.302;2023-02-01T15:29:46;100952.53;;;9.20;100.00
48652;BME280;34442;52.362;-1.302;2023-02-01T15:32:32;100957.63;;;9.15;100.00
48652;BME280;34442;52.362;-1.302;2023-02-01T15:34:59;100962.81;;;9.16;100.00
48652;BME280;34442;52.362;-1.302;2023-02-01T15:37:26;100965.75;;;9.07;100.00
48652;BME280;34442;52.362;-1.302;2023-02-01T15:45:22;100975.66;;;9.06;100.00
48652;BME280;34442;52.362;-1.302;2023-02-01T15:47:52;100978.16;;;9.08;100.00
48652;BME280;34442;52.362;-1.302;2023-02-01T15:50:19;100981.19;;;9.05;100.00
48652;BME280;34442;52.362;-1.302;2023-02-01T15:52:47;100984.53;;;9.07;100.00
48652;BME280;34442;52.362;-1.302;2023-02-01T15:57:55;100981.09;;;8.98;100.00
48652;BME280;34442;52.362;-1.302;2023-02-01T16:00:27;100978.56;;;8.97;100.00
48652;BME280;34442;52.362;-1.302;2023-02-01T16:03:04;100979.13;;;8.92;100.00
48652;BME280;34442;52.362;-1.302;2023-02-01T16:08:22;100983.50;;;8.93;100.00
48652;BME280;34442;52.362;-1.302;2023-02-01T16:10:51;100985.03;;;8.87;100.00
48652;BME280;34442;52.362;-1.302;2023-02-01T16:13:19;100994.28;;;8.85;100.00
48652;BME280;34442;52.362;-1.302;2023-02-01T16:15:46;101000.81;;;8.82;100.00
48652;BME280;34442;52.362;-1.302;2023-02-01T16:18:12;100997.94;;;8.84;100.00
48652;BME280;34442;52.362;-1.302;2023-02-01T16:20:40;100997.13;;;8.83;100.00
48652;BME280;34442;52.362;-1.302;2023-02-01T16:23:09;101006.19;;;8.82;100.00
48652;BME280;34442;52.362;-1.302;2023-02-01T16:25:36;101009.88;;;8.81;100.00
48652;BME280;34442;52.362;-1.302;2023-02-01T16:28:03;101014.53;;;8.87;100.00
48652;BME280;34442;52.362;-1.302;2023-02-01T16:30:29;101010.81;;;8.88;100.00
48652;BME280;34442;52.362;-1.302;2023-02-01T16:32:56;101011.53;;;8.82;100.00
48652;BME280;34442;52.362;-1.302;2023-02-01T16:35:34;101011.34;;;8.84;100.00
48652;BME280;34442;52.362;-1.302;2023-02-01T16:38:04;101013.88;;;8.85;100.00
48652;BME280;34442;52.362;-1.302;2023-02-01T16:40:37;101013.41;;;8.82;100.00
48652;BME280;34442;52.362;-1.302;2023-02-01T16:43:11;101015.13;;;8.75;100.00
48652;BME280;34442;52.362;-1.302;2023-02-01T16:45:37;101017.31;;;8.71;100.00
48652;BME280;34442;52.362;-1.302;2023-02-01T16:48:04;101021.66;;;8.72;100.00
48652;BME280;34442;52.362;-1.302;2023-02-01T16:50:32;101016.31;;;8.72;100.00
48652;BME280;34442;52.362;-1.302;2023-02-01T16:52:58;101018.34;;;8.70;100.00
48652;BME280;34442;52.362;-1.302;2023-02-01T16:55:23;101023.03;;;8.68;100.00
48652;BME280;34442;52.362;-1.302;2023-02-01T16:57:50;101027.41;;;8.69;100.00
48652;BME280;34442;52.362;-1.302;2023-02-01T17:00:16;101034.13;;;8.65;100.00
48652;BME280;34442;52.362;-1.302;2023-02-01T17:02:41;101041.44;;;8.71;100.00
48652;BME280;34442;52.362;-1.302;2023-02-01T17:05:08;101038.41;;;8.74;100.00